sensor_id;sensor_type;location;lat;lon;timestamp;P1;durP1;ratioP1;P2;durP2;ratioP2
77802;SDS011;66993;48.256;16.422;2023-06-10T00:04:51;9.5;;;6.0;;
77802;SDS011;66993;48.256;16.422;2023-06-10T00:09:52;8.7;;;5.7;;
77802;SDS011;66993;48.256;16.422;2023-06-10T00:14:53;8.8;;;5.7;;
77802;SDS011;66993;48.256;16.422;2023-06-10T00:19:54;10.6;;;5.9;;
77802;SDS011;66993;48.256;16.422;2023-06-10T00:24:56;9.1;;;6.2;;
77802;SDS011;66993;48.256;16.422;2023-06-10T00:29:57;9.2;;;6.2;;
77802;SDS011;66993;48.256;16.422;2023-06-10T00:34:58;10.2;;;6.4;;
77802;SDS011;66993;48.256;16.422;2023-06-10T00:39:59;10.0;;;6.4;;
77802;SDS011;66993;48.256;16.422;2023-06-10T00:45:00;10.0;;;6.6;;
77802;SDS011;66993;48.256;16.422;2023-06-10T00:50:02;9.4;;;6.6;;
77802;SDS011;66993;48.256;16.422;2023-06-10T00:55:03;9.7;;;6.9;;
77802;SDS011;66993;48.256;16.422;2023-06-10T01:00:05;9.7;;;6.4;;
77802;SDS011;66993;48.256;16.422;2023-06-10T01:05:06;10.2;;;6.7;;
77802;SDS011;66993;48.256;16.422;2023-06-10T01:10:09;10.7;;;7.0;;
77802;SDS011;66993;48.256;16.422;2023-06-10T01:15:08;12.5;;;7.1;;
77802;SDS011;66993;48.256;16.422;2023-06-10T01:20:09;11.2;;;6.9;;
77802;SDS011;66993;48.256;16.422;2023-06-10T01:25:10;12.2;;;7.5;;
77802;SDS011;66993;48.256;16.422;2023-06-10T01:30:13;11.7;;;7.3;;
77802;SDS011;66993;48.256;16.422;2023-06-10T01:35:14;12.9;;;8.4;;
77802;SDS011;66993;48.256;16.422;2023-06-10T01:40:14;12.9;;;8.2;;
77802;SDS011;66993;48.256;16.422;2023-06-10T01:45:16;11.3;;;7.8;;
77802;SDS011;66993;48.256;16.422;2023-06-10T01:50:17;11.9;;;7.9;;
77802;SDS011;66993;48.256;16.422;2023-06-10T01:55:19;14.5;;;8.8;;
77802;SDS011;66993;48.256;16.422;2023-06-10T02:00:19;13.4;;;9.0;;
77802;SDS011;66993;48.256;16.422;2023-06-10T02:05:21;14.9;;;9.0;;
77802;SDS011;66993;48.256;16.422;2023-06-10T02:10:22;14.1;;;9.6;;
77802;SDS011;66993;48.256;16.422;2023-06-10T02:15:23;15.7;;;9.5;;
77802;SDS011;66993;48.256;16.422;2023-06-10T02:20:24;16.1;;;9.8;;
77802;SDS011;66993;48.256;16.422;2023-06-10T02:25:26;16.8;;;11.1;;
77802;SDS011;66993;48.256;16.422;2023-06-10T02:30:27;20.1;;;11.3;;
77802;SDS011;66993;48.256;16.422;2023-06-10T02:35:29;19.3;;;11.4;;
77802;SDS011;66993;48.256;16.422;2023-06-10T02:40:30;19.6;;;12.0;;
77802;SDS011;66993;48.256;16.422;2023-06-10T02:45:31;20.9;;;11.7;;
77802;SDS011;66993;48.256;16.422;2023-06-10T02:50:32;21.1;;;12.4;;
77802;SDS011;66993;48.256;16.422;2023-06-10T02:55:33;20.5;;;12.7;;
77802;SDS011;66993;48.256;16.422;2023-06-10T03:00:35;23.7;;;13.4;;
77802;SDS011;66993;48.256;16.422;2023-06-10T03:05:37;20.1;;;12.5;;
77802;SDS011;66993;48.256;16.422;2023-06-10T03:10:37;21.5;;;12.7;;
77802;SDS011;66993;48.256;16.422;2023-06-10T03:15:39;21.9;;;12.5;;
77802;SDS011;66993;48.256;16.422;2023-06-10T03:20:40;22.7;;;12.1;;
77802;SDS011;66993;48.256;16.422;2023-06-10T03:25:41;22.0;;;12.7;;
77802;SDS011;66993;48.256;16.422;2023-06-10T03:30:42;21.6;;;13.1;;
77802;SDS011;66993;48.256;16.422;2023-06-10T03:35:44;20.9;;;12.9;;
77802;SDS011;66993;48.256;16.422;2023-06-10T03:40:45;20.5;;;13.0;;
77802;SDS011;66993;48.256;16.422;2023-06-10T03:45:46;20.0;;;12.0;;
77802;SDS011;66993;48.256;16.422;2023-06-10T03:50:48;20.5;;;12.2;;
77802;SDS011;66993;48.256;16.422;2023-06-10T03:55:49;17.6;;;11.8;;
77802;SDS011;66993;48.256;16.422;2023-06-10T04:00:50;18.3;;;11.9;;
77802;SDS011;66993;48.256;16.422;2023-06-10T04:05:52;18.1;;;11.2;;
77802;SDS011;66993;48.256;16.422;2023-06-10T04:10:53;16.4;;;11.2;;
77802;SDS011;66993;48.256;16.422;2023-06-10T04:15:54;18.3;;;11.2;;
77802;SDS011;66993;48.256;16.422;2023-06-10T04:20:55;17.7;;;11.2;;
77802;SDS011;66993;48.256;16.422;2023-06-10T04:25:58;18.2;;;11.2;;
77802;SDS011;66993;48.256;16.422;2023-06-10T04:30:58;17.5;;;11.9;;
77802;SDS011;66993;48.256;16.422;2023-06-10T04:35:59;19.6;;;11.9;;
77802;SDS011;66993;48.256;16.422;2023-06-10T04:41:01;16.2;;;11.6;;
77802;SDS011;66993;48.256;16.422;2023-06-10T04:46:02;19.1;;;12.6;;
77802;SDS011;66993;48.256;16.422;2023-06-10T04:51:03;19.4;;;11.6;;
77802;SDS011;66993;48.256;16.422;2023-06-10T04:56:04;18.0;;;12.2;;
77802;SDS011;66993;48.256;16.422;2023-06-10T05:01:05;16.8;;;11.8;;
77802;SDS011;66993;48.256;16.422;2023-06-10T05:06:07;19.0;;;12.8;;
77802;SDS011;66993;48.256;16.422;2023-06-10T05:11:08;18.6;;;12.8;;
77802;SDS011;66993;48.256;16.422;2023-06-10T05:16:09;19.6;;;12.8;;
77802;SDS011;66993;48.256;16.422;2023-06-10T05:21:10;19.9;;;13.2;;
77802;SDS011;66993;48.256;16.422;2023-06-10T05:26:12;21.9;;;12.8;;
77802;SDS011;66993;48.256;16.422;2023-06-10T05:31:13;21.4;;;14.5;;
77802;SDS011;66993;48.256;16.422;2023-06-10T05:36:14;22.4;;;13.7;;
77802;SDS011;66993;48.256;16.422;2023-06-10T05:41:15;26.3;;;14.6;;
77802;SDS011;66993;48.256;16.422;2023-06-10T05:46:17;26.0;;;15.9;;
77802;SDS011;66993;48.256;16.422;2023-06-10T05:51:18;24.6;;;14.2;;
77802;SDS011;66993;48.256;16.422;2023-06-10T05:56:20;25.6;;;16.4;;
77802;SDS011;66993;48.256;16.422;2023-06-10T06:01:20;27.7;;;16.3;;
77802;SDS011;66993;48.256;16.422;2023-06-10T06:06:22;25.6;;;15.5;;
77802;SDS011;66993;48.256;16.422;2023-06-10T06:11:23;24.9;;;15.4;;
77802;SDS011;66993;48.256;16.422;2023-06-10T06:16:24;26.8;;;16.1;;
77802;SDS011;66993;48.256;16.422;2023-06-10T06:21:25;25.1;;;16.6;;
77802;SDS011;66993;48.256;16.422;2023-06-10T06:26:27;24.5;;;15.3;;
77802;SDS011;66993;48.256;16.422;2023-06-10T06:31:28;23.4;;;14.5;;
77802;SDS011;66993;48.256;16.422;2023-06-10T06:36:29;27.0;;;16.5;;
77802;SDS011;66993;48.256;16.422;2023-06-10T06:41:30;24.3;;;15.2;;
77802;SDS011;66993;48.256;16.422;2023-06-10T06:46:32;23.6;;;15.6;;
77802;SDS011;66993;48.256;16.422;2023-06-10T06:51:33;25.8;;;15.6;;
77802;SDS011;66993;48.256;16.422;2023-06-10T06:56:34;26.1;;;16.8;;
77802;SDS011;66993;48.256;16.422;2023-06-10T07:01:36;26.9;;;16.7;;
77802;SDS011;66993;48.256;16.422;2023-06-10T07:06:38;26.1;;;16.6;;
77802;SDS011;66993;48.256;16.422;2023-06-10T07:11:38;26.4;;;16.8;;
77802;SDS011;66993;48.256;16.422;2023-06-10T07:16:40;25.3;;;16.4;;
77802;SDS011;66993;48.256;16.422;2023-06-10T07:21:41;25.1;;;15.5;;
77802;SDS011;66993;48.256;16.422;2023-06-10T07:26:42;24.2;;;16.0;;
77802;SDS011;66993;48.256;16.422;2023-06-10T07:31:43;28.9;;;16.8;;
77802;SDS011;66993;48.256;16.422;2023-06-10T07:36:45;23.3;;;15.6;;
77802;SDS011;66993;48.256;16.422;2023-06-10T07:41:46;26.3;;;15.8;;
77802;SDS011;66993;48.256;16.422;2023-06-10T07:46:47;22.5;;;15.1;;
77802;SDS011;66993;48.256;16.422;2023-06-10T07:51:49;27.4;;;18.2;;
77802;SDS011;66993;48.256;16.422;2023-06-10T07:56:51;23.8;;;16.4;;
77802;SDS011;66993;48.256;16.422;2023-06-10T08:01:51;24.2;;;16.7;;
77802;SDS011;66993;48.256;16.422;2023-06-10T08:06:53;25.0;;;16.2;;
77802;SDS011;66993;48.256;16.422;2023-06-10T08:11:54;26.8;;;16.4;;
77802;SDS011;66993;48.256;16.422;2023-06-10T08:16:55;26.9;;;16.2;;
77802;SDS011;66993;48.256;16.422;2023-06-10T08:21:56;24.2;;;16.7;;
77802;SDS011;66993;48.256;16.422;2023-06-10T08:26:58;26.4;;;17.1;;
77802;SDS011;66993;48.256;16.422;2023-06-10T08:31:59;28.8;;;18.5;;
77802;SDS011;66993;48.256;16.422;2023-06-10T08:37:00;26.6;;;16.6;;
77802;SDS011;66993;48.256;16.422;2023-06-10T08:42:05;35.4;;;17.4;;
77802;SDS011;66993;48.256;16.422;2023-06-10T08:47:05;24.5;;;16.1;;
77802;SDS011;66993;48.256;16.422;2023-06-10T08:52:04;26.6;;;16.3;;
77802;SDS011;66993;48.256;16.422;2023-06-10T08:57:05;22.7;;;15.2;;
77802;SDS011;66993;48.256;16.422;2023-06-10T09:02:08;23.9;;;15.9;;
77802;SDS011;66993;48.256;16.422;2023-06-10T09:07:08;25.8;;;16.0;;
77802;SDS011;66993;48.256;16.422;2023-06-10T09:12:10;22.3;;;14.7;;
77802;SDS011;66993;48.256;16.422;2023-06-10T09:17:11;24.9;;;15.6;;
77802;SDS011;66993;48.256;16.422;2023-06-10T09:22:12;17.7;;;12.8;;
77802;SDS011;66993;48.256;16.422;2023-06-10T09:27:13;17.5;;;12.5;;
77802;SDS011;66993;48.256;16.422;2023-06-10T09:32:15;19.4;;;12.3;;
77802;SDS011;66993;48.256;16.422;2023-06-10T09:37:19;18.3;;;12.4;;
77802;SDS011;66993;48.256;16.422;2023-06-10T09:42:18;18.2;;;13.0;;
77802;SDS011;66993;48.256;16.422;2023-06-10T09:47:20;17.2;;;12.8;;
77802;SDS011;66993;48.256;16.422;2023-06-10T09:52:22;19.6;;;13.2;;
77802;SDS011;66993;48.256;16.422;2023-06-10T09:57:21;20.3;;;12.7;;
77802;SDS011;66993;48.256;16.422;2023-06-10T10:02:22;19.1;;;13.3;;
77802;SDS011;66993;48.256;16.422;2023-06-10T10:07:24;20.8;;;14.1;;
77802;SDS011;66993;48.256;16.422;2023-06-10T10:12:25;19.9;;;13.5;;
77802;SDS011;66993;48.256;16.422;2023-06-10T10:17:26;15.2;;;10.7;;
77802;SDS011;66993;48.256;16.422;2023-06-10T10:22:30;14.4;;;10.6;;
77802;SDS011;66993;48.256;16.422;2023-06-10T10:27:30;13.6;;;10.2;;
77802;SDS011;66993;48.256;16.422;2023-06-10T10:32:32;13.2;;;10.6;;
77802;SDS011;66993;48.256;16.422;2023-06-10T10:37:31;13.4;;;10.2;;
77802;SDS011;66993;48.256;16.422;2023-06-10T10:42:33;16.4;;;11.8;;
77802;SDS011;66993;48.256;16.422;2023-06-10T10:47:34;14.7;;;11.5;;
77802;SDS011;66993;48.256;16.422;2023-06-10T10:57:37;14.8;;;10.7;;
77802;SDS011;66993;48.256;16.422;2023-06-10T11:02:40;15.7;;;11.1;;
77802;SDS011;66993;48.256;16.422;2023-06-10T11:07:39;13.3;;;9.8;;
77802;SDS011;66993;48.256;16.422;2023-06-10T11:12:42;14.4;;;10.9;;
77802;SDS011;66993;48.256;16.422;2023-06-10T11:27:44;12.3;;;9.2;;
77802;SDS011;66993;48.256;16.422;2023-06-10T11:32:47;15.6;;;9.4;;
77802;SDS011;66993;48.256;16.422;2023-06-10T11:37:47;13.0;;;9.9;;
77802;SDS011;66993;48.256;16.422;2023-06-10T11:42:49;15.0;;;10.0;;
77802;SDS011;66993;48.256;16.422;2023-06-10T11:47:56;15.2;;;11.2;;
77802;SDS011;66993;48.256;16.422;2023-06-10T11:52:51;14.5;;;9.6;;
77802;SDS011;66993;48.256;16.422;2023-06-10T11:57:52;12.5;;;9.1;;
77802;SDS011;66993;48.256;16.422;2023-06-10T12:02:55;12.5;;;10.1;;
77802;SDS011;66993;48.256;16.422;2023-06-10T12:12:56;14.5;;;10.0;;
77802;SDS011;66993;48.256;16.422;2023-06-10T12:17:57;12.4;;;9.2;;
77802;SDS011;66993;48.256;16.422;2023-06-10T12:22:59;11.9;;;8.7;;
77802;SDS011;66993;48.256;16.422;2023-06-10T12:28:00;15.4;;;9.7;;
77802;SDS011;66993;48.256;16.422;2023-06-10T12:33:02;13.8;;;11.2;;
77802;SDS011;66993;48.256;16.422;2023-06-10T12:38:03;16.5;;;11.8;;
77802;SDS011;66993;48.256;16.422;2023-06-10T12:43:04;15.7;;;11.3;;
77802;SDS011;66993;48.256;16.422;2023-06-10T12:48:06;14.6;;;11.3;;
77802;SDS011;66993;48.256;16.422;2023-06-10T12:53:07;17.1;;;11.7;;
77802;SDS011;66993;48.256;16.422;2023-06-10T12:58:08;14.2;;;10.0;;
77802;SDS011;66993;48.256;16.422;2023-06-10T13:03:09;11.5;;;9.1;;
77802;SDS011;66993;48.256;16.422;2023-06-10T13:08:10;10.6;;;7.8;;
77802;SDS011;66993;48.256;16.422;2023-06-10T13:13:12;10.1;;;6.9;;
77802;SDS011;66993;48.256;16.422;2023-06-10T13:18:13;9.3;;;7.8;;
77802;SDS011;66993;48.256;16.422;2023-06-10T13:23:14;13.0;;;10.0;;
77802;SDS011;66993;48.256;16.422;2023-06-10T13:28:15;13.0;;;10.2;;
77802;SDS011;66993;48.256;16.422;2023-06-10T13:33:17;13.2;;;10.2;;
77802;SDS011;66993;48.256;16.422;2023-06-10T13:38:18;16.8;;;10.5;;
77802;SDS011;66993;48.256;16.422;2023-06-10T13:43:19;15.7;;;11.0;;
77802;SDS011;66993;48.256;16.422;2023-06-10T13:48:21;12.3;;;9.7;;
77802;SDS011;66993;48.256;16.422;2023-06-10T13:53:22;14.2;;;10.2;;
77802;SDS011;66993;48.256;16.422;2023-06-10T13:58:23;17.5;;;11.2;;
77802;SDS011;66993;48.256;16.422;2023-06-10T14:03:25;12.1;;;9.7;;
77802;SDS011;66993;48.256;16.422;2023-06-10T14:08:26;34.3;;;12.1;;
77802;SDS011;66993;48.256;16.422;2023-06-10T14:13:27;12.5;;;9.5;;
77802;SDS011;66993;48.256;16.422;2023-06-10T14:18:28;13.4;;;10.4;;
77802;SDS011;66993;48.256;16.422;2023-06-10T14:23:30;14.9;;;10.4;;
77802;SDS011;66993;48.256;16.422;2023-06-10T14:28:31;20.7;;;10.0;;
77802;SDS011;66993;48.256;16.422;2023-06-10T14:33:33;14.2;;;10.4;;
77802;SDS011;66993;48.256;16.422;2023-06-10T14:38:34;13.6;;;9.7;;
77802;SDS011;66993;48.256;16.422;2023-06-10T14:43:36;13.2;;;9.4;;
77802;SDS011;66993;48.256;16.422;2023-06-10T14:48:36;15.0;;;9.5;;
77802;SDS011;66993;48.256;16.422;2023-06-10T14:53:38;13.8;;;9.5;;
77802;SDS011;66993;48.256;16.422;2023-06-10T14:58:39;12.0;;;9.1;;
77802;SDS011;66993;48.256;16.422;2023-06-10T15:03:40;12.3;;;9.6;;
77802;SDS011;66993;48.256;16.422;2023-06-10T15:08:42;12.6;;;9.1;;
77802;SDS011;66993;48.256;16.422;2023-06-10T15:13:43;13.4;;;10.1;;
77802;SDS011;66993;48.256;16.422;2023-06-10T15:18:44;18.4;;;8.6;;
77802;SDS011;66993;48.256;16.422;2023-06-10T15:23:45;12.0;;;7.8;;
77802;SDS011;66993;48.256;16.422;2023-06-10T15:28:47;11.9;;;7.3;;
77802;SDS011;66993;48.256;16.422;2023-06-10T15:33:48;15.2;;;9.3;;
77802;SDS011;66993;48.256;16.422;2023-06-10T15:38:50;16.3;;;10.1;;
77802;SDS011;66993;48.256;16.422;2023-06-10T15:43:50;14.3;;;9.2;;
77802;SDS011;66993;48.256;16.422;2023-06-10T15:48:52;14.4;;;9.3;;
77802;SDS011;66993;48.256;16.422;2023-06-10T15:53:53;17.8;;;8.5;;
77802;SDS011;66993;48.256;16.422;2023-06-10T15:58:54;18.5;;;10.3;;
77802;SDS011;66993;48.256;16.422;2023-06-10T16:03:56;19.1;;;11.8;;
77802;SDS011;66993;48.256;16.422;2023-06-10T16:08:57;18.6;;;11.6;;
77802;SDS011;66993;48.256;16.422;2023-06-10T16:13:58;24.5;;;13.8;;
77802;SDS011;66993;48.256;16.422;2023-06-10T16:19:00;20.0;;;12.3;;
77802;SDS011;66993;48.256;16.422;2023-06-10T16:24:01;17.4;;;10.7;;
77802;SDS011;66993;48.256;16.422;2023-06-10T16:29:02;19.5;;;11.4;;
77802;SDS011;66993;48.256;16.422;2023-06-10T16:34:03;15.2;;;10.4;;
77802;SDS011;66993;48.256;16.422;2023-06-10T16:39:05;19.3;;;12.1;;
77802;SDS011;66993;48.256;16.422;2023-06-10T16:44:06;18.9;;;12.5;;
77802;SDS011;66993;48.256;16.422;2023-06-10T16:49:07;19.5;;;12.9;;
77802;SDS011;66993;48.256;16.422;2023-06-10T16:54:08;17.9;;;12.1;;
77802;SDS011;66993;48.256;16.422;2023-06-10T16:59:10;17.9;;;12.0;;
77802;SDS011;66993;48.256;16.422;2023-06-10T17:04:11;19.4;;;12.7;;
77802;SDS011;66993;48.256;16.422;2023-06-10T17:09:12;22.0;;;13.7;;
77802;SDS011;66993;48.256;16.422;2023-06-10T17:14:13;23.3;;;15.4;;
77802;SDS011;66993;48.256;16.422;2023-06-10T17:19:15;23.8;;;14.8;;
77802;SDS011;66993;48.256;16.422;2023-06-10T17:24:16;25.1;;;16.0;;
77802;SDS011;66993;48.256;16.422;2023-06-10T17:29:18;29.5;;;16.3;;
77802;SDS011;66993;48.256;16.422;2023-06-10T17:34:18;25.4;;;16.1;;
77802;SDS011;66993;48.256;16.422;2023-06-10T17:39:20;23.9;;;14.8;;
77802;SDS011;66993;48.256;16.422;2023-06-10T17:44:21;20.8;;;13.5;;
77802;SDS011;66993;48.256;16.422;2023-06-10T17:49:22;18.9;;;13.2;;
77802;SDS011;66993;48.256;16.422;2023-06-10T17:54:23;18.3;;;12.7;;
77802;SDS011;66993;48.256;16.422;2023-06-10T17:59:25;20.8;;;13.3;;
77802;SDS011;66993;48.256;16.422;2023-06-10T18:04:26;21.7;;;14.7;;
77802;SDS011;66993;48.256;16.422;2023-06-10T18:09:28;20.6;;;14.5;;
77802;SDS011;66993;48.256;16.422;2023-06-10T18:14:29;20.3;;;14.6;;
77802;SDS011;66993;48.256;16.422;2023-06-10T18:19:30;22.3;;;14.3;;
77802;SDS011;66993;48.256;16.422;2023-06-10T18:24:31;22.6;;;15.0;;
77802;SDS011;66993;48.256;16.422;2023-06-10T18:29:32;20.9;;;15.2;;
77802;SDS011;66993;48.256;16.422;2023-06-10T18:34:34;22.2;;;15.2;;
77802;SDS011;66993;48.256;16.422;2023-06-10T18:39:35;27.8;;;17.4;;
77802;SDS011;66993;48.256;16.422;2023-06-10T18:44:36;25.3;;;17.6;;
77802;SDS011;66993;48.256;16.422;2023-06-10T18:49:39;25.1;;;17.5;;
77802;SDS011;66993;48.256;16.422;2023-06-10T18:54:39;28.0;;;18.8;;
77802;SDS011;66993;48.256;16.422;2023-06-10T18:59:41;24.5;;;17.4;;
77802;SDS011;66993;48.256;16.422;2023-06-10T19:04:42;24.3;;;16.9;;
77802;SDS011;66993;48.256;16.422;2023-06-10T19:09:43;27.5;;;17.9;;
77802;SDS011;66993;48.256;16.422;2023-06-10T19:14:45;26.5;;;18.4;;
77802;SDS011;66993;48.256;16.422;2023-06-10T19:19:46;28.5;;;18.6;;
77802;SDS011;66993;48.256;16.422;2023-06-10T19:24:57;26.1;;;18.1;;
77802;SDS011;66993;48.256;16.422;2023-06-10T19:29:48;25.9;;;17.9;;
77802;SDS011;66993;48.256;16.422;2023-06-10T19:34:50;24.0;;;17.5;;
77802;SDS011;66993;48.256;16.422;2023-06-10T19:39:51;25.4;;;18.2;;
77802;SDS011;66993;48.256;16.422;2023-06-10T19:44:52;28.1;;;18.5;;
77802;SDS011;66993;48.256;16.422;2023-06-10T19:49:54;27.3;;;18.8;;
77802;SDS011;66993;48.256;16.422;2023-06-10T19:54:55;29.6;;;19.5;;
77802;SDS011;66993;48.256;16.422;2023-06-10T19:59:56;31.0;;;20.0;;
77802;SDS011;66993;48.256;16.422;2023-06-10T20:04:57;26.2;;;19.1;;
77802;SDS011;66993;48.256;16.422;2023-06-10T20:09:59;27.4;;;18.4;;
77802;SDS011;66993;48.256;16.422;2023-06-10T20:14:59;25.4;;;17.3;;
77802;SDS011;66993;48.256;16.422;2023-06-10T20:20:01;23.1;;;16.2;;
77802;SDS011;66993;48.256;16.422;2023-06-10T20:25:03;23.4;;;16.7;;
77802;SDS011;66993;48.256;16.422;2023-06-10T20:30:04;22.3;;;15.8;;
77802;SDS011;66993;48.256;16.422;2023-06-10T20:35:05;22.0;;;16.6;;
77802;SDS011;66993;48.256;16.422;2023-06-10T20:40:07;19.5;;;14.7;;
77802;SDS011;66993;48.256;16.422;2023-06-10T20:45:08;20.2;;;14.9;;
77802;SDS011;66993;48.256;16.422;2023-06-10T20:50:09;21.8;;;15.5;;
77802;SDS011;66993;48.256;16.422;2023-06-10T20:55:10;20.6;;;15.9;;
77802;SDS011;66993;48.256;16.422;2023-06-10T21:00:12;21.3;;;15.3;;
77802;SDS011;66993;48.256;16.422;2023-06-10T21:05:12;20.9;;;15.5;;
77802;SDS011;66993;48.256;16.422;2023-06-10T21:10:14;22.4;;;14.5;;
77802;SDS011;66993;48.256;16.422;2023-06-10T21:15:15;19.8;;;15.2;;
77802;SDS011;66993;48.256;16.422;2023-06-10T21:20:16;19.1;;;14.4;;
77802;SDS011;66993;48.256;16.422;2023-06-10T21:25:17;19.6;;;15.0;;
77802;SDS011;66993;48.256;16.422;2023-06-10T21:30:19;21.2;;;15.9;;
77802;SDS011;66993;48.256;16.422;2023-06-10T21:35:20;21.2;;;14.8;;
77802;SDS011;66993;48.256;16.422;2023-06-10T21:40:21;23.6;;;15.7;;
77802;SDS011;66993;48.256;16.422;2023-06-10T21:45:22;20.8;;;15.3;;
77802;SDS011;66993;48.256;16.422;2023-06-10T21:50:24;20.0;;;15.8;;
77802;SDS011;66993;48.256;16.422;2023-06-10T21:55:25;21.3;;;14.9;;
77802;SDS011;66993;48.256;16.422;2023-06-10T22:00:26;21.6;;;15.3;;
77802;SDS011;66993;48.256;16.422;2023-06-10T22:05:28;21.3;;;15.6;;
77802;SDS011;66993;48.256;16.422;2023-06-10T22:10:29;22.9;;;14.8;;
77802;SDS011;66993;48.256;16.422;2023-06-10T22:15:30;24.0;;;16.0;;
77802;SDS011;66993;48.256;16.422;2023-06-10T22:20:31;21.3;;;15.0;;
77802;SDS011;66993;48.256;16.422;2023-06-10T22:25:33;22.1;;;14.6;;
77802;SDS011;66993;48.256;16.422;2023-06-10T22:30:34;23.0;;;15.5;;
77802;SDS011;66993;48.256;16.422;2023-06-10T22:35:35;19.7;;;14.5;;
77802;SDS011;66993;48.256;16.422;2023-06-10T22:40:36;19.6;;;14.9;;
77802;SDS011;66993;48.256;16.422;2023-06-10T22:45:38;16.6;;;12.7;;
77802;SDS011;66993;48.256;16.422;2023-06-10T22:50:39;17.6;;;12.4;;
77802;SDS011;66993;48.256;16.422;2023-06-10T22:55:40;16.1;;;12.0;;
77802;SDS011;66993;48.256;16.422;2023-06-10T23:00:42;15.6;;;11.6;;
77802;SDS011;66993;48.256;16.422;2023-06-10T23:05:44;15.6;;;10.7;;
77802;SDS011;66993;48.256;16.422;2023-06-10T23:10:44;13.9;;;10.4;;
77802;SDS011;66993;48.256;16.422;2023-06-10T23:15:46;13.5;;;9.7;;
77802;SDS011;66993;48.256;16.422;2023-06-10T23:20:47;14.9;;;10.9;;
77802;SDS011;66993;48.256;16.422;2023-06-10T23:25:49;14.7;;;10.0;;
77802;SDS011;66993;48.256;16.422;2023-06-10T23:30:49;13.4;;;10.2;;
77802;SDS011;66993;48.256;16.422;2023-06-10T23:35:51;13.6;;;10.1;;
77802;SDS011;66993;48.256;16.422;2023-06-10T23:40:52;13.1;;;10.2;;
77802;SDS011;66993;48.256;16.422;2023-06-10T23:45:53;15.9;;;10.4;;
77802;SDS011;66993;48.256;16.422;2023-06-10T23:50:54;13.9;;;9.6;;
77802;SDS011;66993;48.256;16.422;2023-06-10T23:55:56;12.2;;;9.8;;
